sensor_id;sensor_type;location;lat;lon;timestamp;temperature;humidity
78647;DHT22;67961;43.460;3.762;2023-02-19T00:01:13;7.80;79.80
78647;DHT22;67961;43.460;3.762;2023-02-19T00:03:40;7.90;82.50
78647;DHT22;67961;43.460;3.762;2023-02-19T00:06:08;8.20;82.90
78647;DHT22;67961;43.460;3.762;2023-02-19T00:08:36;8.40;82.90
78647;DHT22;67961;43.460;3.762;2023-02-19T00:11:05;8.60;82.60
78647;DHT22;67961;43.460;3.762;2023-02-19T00:13:35;8.70;82.60
78647;DHT22;67961;43.460;3.762;2023-02-19T00:16:22;8.90;81.80
78647;DHT22;67961;43.460;3.762;2023-02-19T00:18:48;8.90;81.00
78647;DHT22;67961;43.460;3.762;2023-02-19T00:21:15;8.90;80.80
78647;DHT22;67961;43.460;3.762;2023-02-19T00:23:41;8.90;80.80
78647;DHT22;67961;43.460;3.762;2023-02-19T00:26:09;8.90;80.80
78647;DHT22;67961;43.460;3.762;2023-02-19T00:28:38;8.90;80.90
78647;DHT22;67961;43.460;3.762;2023-02-19T00:31:18;8.90;80.90
78647;DHT22;67961;43.460;3.762;2023-02-19T00:33:45;9.00;80.70
78647;DHT22;67961;43.460;3.762;2023-02-19T00:36:12;8.90;80.50
78647;DHT22;67961;43.460;3.762;2023-02-19T00:38:39;8.80;80.30
78647;DHT22;67961;43.460;3.762;2023-02-19T00:41:07;8.70;80.50
78647;DHT22;67961;43.460;3.762;2023-02-19T00:46:20;8.50;80.10
78647;DHT22;67961;43.460;3.762;2023-02-19T00:48:46;8.50;80.10
78647;DHT22;67961;43.460;3.762;2023-02-19T00:51:13;8.40;80.20
78647;DHT22;67961;43.460;3.762;2023-02-19T00:53:39;8.30;80.40
78647;DHT22;67961;43.460;3.762;2023-02-19T00:56:05;8.30;80.50
78647;DHT22;67961;43.460;3.762;2023-02-19T00:58:31;8.20;80.50
78647;DHT22;67961;43.460;3.762;2023-02-19T01:00:56;8.20;80.70
78647;DHT22;67961;43.460;3.762;2023-02-19T01:03:22;8.20;80.60
78647;DHT22;67961;43.460;3.762;2023-02-19T01:05:51;8.10;80.20
78647;DHT22;67961;43.460;3.762;2023-02-19T01:08:17;8.10;80.40
78647;DHT22;67961;43.460;3.762;2023-02-19T01:10:43;8.10;80.10
78647;DHT22;67961;43.460;3.762;2023-02-19T01:13:09;8.10;80.10
78647;DHT22;67961;43.460;3.762;2023-02-19T01:15:35;8.10;80.50
78647;DHT22;67961;43.460;3.762;2023-02-19T01:18:01;8.10;80.80
78647;DHT22;67961;43.460;3.762;2023-02-19T01:20:27;8.10;80.80
78647;DHT22;67961;43.460;3.762;2023-02-19T01:22:53;8.20;80.90
78647;DHT22;67961;43.460;3.762;2023-02-19T01:25:18;8.20;81.00
78647;DHT22;67961;43.460;3.762;2023-02-19T01:27:45;8.10;81.00
78647;DHT22;67961;43.460;3.762;2023-02-19T01:30:11;8.10;81.10
78647;DHT22;67961;43.460;3.762;2023-02-19T01:32:37;8.10;80.40
78647;DHT22;67961;43.460;3.762;2023-02-19T01:35:03;8.10;80.40
78647;DHT22;67961;43.460;3.762;2023-02-19T01:37:29;8.00;80.30
78647;DHT22;67961;43.460;3.762;2023-02-19T01:39:55;8.00;79.50
78647;DHT22;67961;43.460;3.762;2023-02-19T01:42:21;7.80;79.70
78647;DHT22;67961;43.460;3.762;2023-02-19T01:47:14;7.80;79.80
78647;DHT22;67961;43.460;3.762;2023-02-19T01:49:50;7.80;80.00
78647;DHT22;67961;43.460;3.762;2023-02-19T01:52:30;7.80;79.30
78647;DHT22;67961;43.460;3.762;2023-02-19T01:54:57;7.70;79.70
78647;DHT22;67961;43.460;3.762;2023-02-19T01:57:30;7.60;78.90
78647;DHT22;67961;43.460;3.762;2023-02-19T02:00:03;7.60;79.20
78647;DHT22;67961;43.460;3.762;2023-02-19T02:02:30;7.60;79.50
78647;DHT22;67961;43.460;3.762;2023-02-19T02:04:57;7.50;79.60
78647;DHT22;67961;43.460;3.762;2023-02-19T02:07:24;7.50;79.80
78647;DHT22;67961;43.460;3.762;2023-02-19T02:10:09;7.60;80.20
78647;DHT22;67961;43.460;3.762;2023-02-19T02:12:47;7.80;80.50
78647;DHT22;67961;43.460;3.762;2023-02-19T02:15:14;7.80;80.20
78647;DHT22;67961;43.460;3.762;2023-02-19T02:18:01;7.80;80.20
78647;DHT22;67961;43.460;3.762;2023-02-19T02:26:05;7.80;80.70
78647;DHT22;67961;43.460;3.762;2023-02-19T02:28:46;7.80;80.90
78647;DHT22;67961;43.460;3.762;2023-02-19T02:31:36;7.80;80.80
78647;DHT22;67961;43.460;3.762;2023-02-19T02:34:17;7.80;80.60
78647;DHT22;67961;43.460;3.762;2023-02-19T02:36:46;7.80;80.30
78647;DHT22;67961;43.460;3.762;2023-02-19T02:39:17;7.80;80.10
78647;DHT22;67961;43.460;3.762;2023-02-19T02:41:49;7.70;80.20
78647;DHT22;67961;43.460;3.762;2023-02-19T02:44:39;7.60;80.20
78647;DHT22;67961;43.460;3.762;2023-02-19T02:47:06;7.60;80.80
78647;DHT22;67961;43.460;3.762;2023-02-19T02:49:52;7.70;80.20
78647;DHT22;67961;43.460;3.762;2023-02-19T02:52:30;7.60;79.70
78647;DHT22;67961;43.460;3.762;2023-02-19T02:55:15;7.60;80.10
78647;DHT22;67961;43.460;3.762;2023-02-19T02:57:41;7.60;80.50
78647;DHT22;67961;43.460;3.762;2023-02-19T03:00:07;7.70;80.10
78647;DHT22;67961;43.460;3.762;2023-02-19T03:02:34;7.60;79.80
78647;DHT22;67961;43.460;3.762;2023-02-19T03:05:19;7.50;80.00
78647;DHT22;67961;43.460;3.762;2023-02-19T03:08:14;7.50;79.40
78647;DHT22;67961;43.460;3.762;2023-02-19T03:13:27;7.50;80.40
78647;DHT22;67961;43.460;3.762;2023-02-19T03:16:19;7.50;80.40
78647;DHT22;67961;43.460;3.762;2023-02-19T03:19:04;7.50;80.40
78647;DHT22;67961;43.460;3.762;2023-02-19T03:21:51;7.40;80.40
78647;DHT22;67961;43.460;3.762;2023-02-19T03:24:21;7.40;79.70
78647;DHT22;67961;43.460;3.762;2023-02-19T03:27:08;7.20;79.30
78647;DHT22;67961;43.460;3.762;2023-02-19T03:29:37;7.10;78.90
78647;DHT22;67961;43.460;3.762;2023-02-19T03:32:09;7.10;79.80
78647;DHT22;67961;43.460;3.762;2023-02-19T03:34:39;7.10;80.00
78647;DHT22;67961;43.460;3.762;2023-02-19T03:37:14;7.00;79.40
78647;DHT22;67961;43.460;3.762;2023-02-19T03:39:41;7.00;80.30
78647;DHT22;67961;43.460;3.762;2023-02-19T03:45:15;7.10;80.40
78647;DHT22;67961;43.460;3.762;2023-02-19T03:51:01;7.10;80.40
78647;DHT22;67961;43.460;3.762;2023-02-19T03:53:50;7.10;80.50
78647;DHT22;67961;43.460;3.762;2023-02-19T03:56:32;7.10;80.10
78647;DHT22;67961;43.460;3.762;2023-02-19T03:59:09;7.00;80.30
78647;DHT22;67961;43.460;3.762;2023-02-19T04:01:53;7.00;80.50
78647;DHT22;67961;43.460;3.762;2023-02-19T04:04:30;7.00;80.50
78647;DHT22;67961;43.460;3.762;2023-02-19T04:06:57;7.00;80.00
78647;DHT22;67961;43.460;3.762;2023-02-19T04:09:28;7.00;80.10
78647;DHT22;67961;43.460;3.762;2023-02-19T04:11:55;7.00;80.20
78647;DHT22;67961;43.460;3.762;2023-02-19T04:14:26;6.90;80.30
78647;DHT22;67961;43.460;3.762;2023-02-19T04:17:00;6.90;80.10
78647;DHT22;67961;43.460;3.762;2023-02-19T04:19:29;6.90;80.20
78647;DHT22;67961;43.460;3.762;2023-02-19T04:21:57;6.90;80.30
78647;DHT22;67961;43.460;3.762;2023-02-19T04:24:36;6.90;80.50
78647;DHT22;67961;43.460;3.762;2023-02-19T04:27:04;6.90;80.30
78647;DHT22;67961;43.460;3.762;2023-02-19T04:29:30;6.90;80.30
78647;DHT22;67961;43.460;3.762;2023-02-19T04:31:56;7.00;80.20
78647;DHT22;67961;43.460;3.762;2023-02-19T04:34:22;6.90;79.60
78647;DHT22;67961;43.460;3.762;2023-02-19T04:36:47;6.90;80.20
78647;DHT22;67961;43.460;3.762;2023-02-19T04:39:13;6.90;79.70
78647;DHT22;67961;43.460;3.762;2023-02-19T04:41:39;6.80;80.00
78647;DHT22;67961;43.460;3.762;2023-02-19T04:44:04;6.80;80.40
78647;DHT22;67961;43.460;3.762;2023-02-19T04:46:30;6.80;80.00
78647;DHT22;67961;43.460;3.762;2023-02-19T04:48:56;6.80;80.30
78647;DHT22;67961;43.460;3.762;2023-02-19T04:51:23;6.80;80.00
78647;DHT22;67961;43.460;3.762;2023-02-19T04:53:49;6.80;80.20
78647;DHT22;67961;43.460;3.762;2023-02-19T04:56:15;6.90;80.30
78647;DHT22;67961;43.460;3.762;2023-02-19T04:58:42;7.00;80.30
78647;DHT22;67961;43.460;3.762;2023-02-19T05:01:08;7.00;80.20
78647;DHT22;67961;43.460;3.762;2023-02-19T05:03:34;6.90;80.00
78647;DHT22;67961;43.460;3.762;2023-02-19T05:06:05;6.90;79.80
78647;DHT22;67961;43.460;3.762;2023-02-19T05:08:31;6.90;80.20
78647;DHT22;67961;43.460;3.762;2023-02-19T05:11:01;6.80;80.20
78647;DHT22;67961;43.460;3.762;2023-02-19T05:13:28;6.80;80.10
78647;DHT22;67961;43.460;3.762;2023-02-19T05:15:58;6.80;80.30
78647;DHT22;67961;43.460;3.762;2023-02-19T05:18:24;6.80;80.10
78647;DHT22;67961;43.460;3.762;2023-02-19T05:20:51;6.80;80.60
78647;DHT22;67961;43.460;3.762;2023-02-19T05:23:18;6.80;80.30
78647;DHT22;67961;43.460;3.762;2023-02-19T05:25:43;6.70;80.10
78647;DHT22;67961;43.460;3.762;2023-02-19T05:28:09;6.70;80.40
78647;DHT22;67961;43.460;3.762;2023-02-19T05:30:44;6.70;80.40
78647;DHT22;67961;43.460;3.762;2023-02-19T05:33:11;6.70;80.70
78647;DHT22;67961;43.460;3.762;2023-02-19T05:35:42;6.80;81.00
78647;DHT22;67961;43.460;3.762;2023-02-19T05:38:08;6.80;80.80
78647;DHT22;67961;43.460;3.762;2023-02-19T05:40:34;6.80;80.70
78647;DHT22;67961;43.460;3.762;2023-02-19T05:43:00;6.80;80.10
78647;DHT22;67961;43.460;3.762;2023-02-19T05:45:26;6.70;79.30
78647;DHT22;67961;43.460;3.762;2023-02-19T05:47:51;6.60;79.50
78647;DHT22;67961;43.460;3.762;2023-02-19T05:50:17;6.60;79.60
78647;DHT22;67961;43.460;3.762;2023-02-19T05:52:43;6.60;80.10
78647;DHT22;67961;43.460;3.762;2023-02-19T05:55:10;6.60;80.70
78647;DHT22;67961;43.460;3.762;2023-02-19T05:57:43;6.60;80.70
78647;DHT22;67961;43.460;3.762;2023-02-19T06:00:14;6.60;80.20
78647;DHT22;67961;43.460;3.762;2023-02-19T06:02:40;6.60;80.20
78647;DHT22;67961;43.460;3.762;2023-02-19T06:05:06;6.50;80.50
78647;DHT22;67961;43.460;3.762;2023-02-19T06:07:33;6.60;80.60
78647;DHT22;67961;43.460;3.762;2023-02-19T06:09:59;6.60;80.50
78647;DHT22;67961;43.460;3.762;2023-02-19T06:12:27;6.50;80.20
78647;DHT22;67961;43.460;3.762;2023-02-19T06:14:53;6.50;80.30
78647;DHT22;67961;43.460;3.762;2023-02-19T06:17:18;6.50;79.40
78647;DHT22;67961;43.460;3.762;2023-02-19T06:19:44;6.50;81.50
78647;DHT22;67961;43.460;3.762;2023-02-19T06:22:10;6.50;81.80
78647;DHT22;67961;43.460;3.762;2023-02-19T06:24:35;6.50;81.70
78647;DHT22;67961;43.460;3.762;2023-02-19T06:27:06;6.50;81.80
78647;DHT22;67961;43.460;3.762;2023-02-19T06:29:32;6.60;82.40
78647;DHT22;67961;43.460;3.762;2023-02-19T06:31:58;6.70;81.50
78647;DHT22;67961;43.460;3.762;2023-02-19T06:34:25;6.60;81.40
78647;DHT22;67961;43.460;3.762;2023-02-19T06:36:50;6.50;80.90
78647;DHT22;67961;43.460;3.762;2023-02-19T06:39:16;6.50;80.90
78647;DHT22;67961;43.460;3.762;2023-02-19T06:41:42;6.50;80.80
78647;DHT22;67961;43.460;3.762;2023-02-19T06:44:08;6.50;80.80
78647;DHT22;67961;43.460;3.762;2023-02-19T06:46:33;6.50;80.90
78647;DHT22;67961;43.460;3.762;2023-02-19T06:49:00;6.50;80.90
78647;DHT22;67961;43.460;3.762;2023-02-19T06:51:27;6.40;80.80
78647;DHT22;67961;43.460;3.762;2023-02-19T06:53:54;6.40;80.50
78647;DHT22;67961;43.460;3.762;2023-02-19T06:56:24;6.50;80.50
78647;DHT22;67961;43.460;3.762;2023-02-19T06:58:52;6.40;80.40
78647;DHT22;67961;43.460;3.762;2023-02-19T07:01:17;6.40;80.60
78647;DHT22;67961;43.460;3.762;2023-02-19T07:03:43;6.40;79.80
78647;DHT22;67961;43.460;3.762;2023-02-19T07:06:09;6.40;80.10
78647;DHT22;67961;43.460;3.762;2023-02-19T07:08:34;6.40;80.70
78647;DHT22;67961;43.460;3.762;2023-02-19T07:11:00;6.50;81.10
78647;DHT22;67961;43.460;3.762;2023-02-19T07:13:26;6.60;81.00
78647;DHT22;67961;43.460;3.762;2023-02-19T07:15:58;6.60;81.60
78647;DHT22;67961;43.460;3.762;2023-02-19T07:18:24;6.70;81.60
78647;DHT22;67961;43.460;3.762;2023-02-19T07:20:49;6.90;82.00
78647;DHT22;67961;43.460;3.762;2023-02-19T07:23:15;7.00;83.40
78647;DHT22;67961;43.460;3.762;2023-02-19T07:25:44;7.20;82.70
78647;DHT22;67961;43.460;3.762;2023-02-19T07:28:09;7.40;82.30
78647;DHT22;67961;43.460;3.762;2023-02-19T07:30:35;7.40;81.80
78647;DHT22;67961;43.460;3.762;2023-02-19T07:33:01;7.40;82.00
78647;DHT22;67961;43.460;3.762;2023-02-19T07:35:26;7.50;81.90
78647;DHT22;67961;43.460;3.762;2023-02-19T07:37:52;7.50;82.40
78647;DHT22;67961;43.460;3.762;2023-02-19T07:40:18;7.60;82.50
78647;DHT22;67961;43.460;3.762;2023-02-19T07:42:43;7.80;82.60
78647;DHT22;67961;43.460;3.762;2023-02-19T07:45:09;7.80;82.80
78647;DHT22;67961;43.460;3.762;2023-02-19T07:47:35;8.00;82.70
78647;DHT22;67961;43.460;3.762;2023-02-19T07:50:01;8.00;82.40
78647;DHT22;67961;43.460;3.762;2023-02-19T07:52:26;8.10;82.20
78647;DHT22;67961;43.460;3.762;2023-02-19T07:54:52;8.20;82.10
78647;DHT22;67961;43.460;3.762;2023-02-19T07:57:18;8.20;82.40
78647;DHT22;67961;43.460;3.762;2023-02-19T07:59:45;8.30;82.30
78647;DHT22;67961;43.460;3.762;2023-02-19T08:02:18;8.40;82.20
78647;DHT22;67961;43.460;3.762;2023-02-19T08:05:04;8.50;82.20
78647;DHT22;67961;43.460;3.762;2023-02-19T08:07:31;8.60;81.70
78647;DHT22;67961;43.460;3.762;2023-02-19T08:09:57;8.60;81.20
78647;DHT22;67961;43.460;3.762;2023-02-19T08:12:41;8.80;81.20
78647;DHT22;67961;43.460;3.762;2023-02-19T08:15:25;8.90;81.10
78647;DHT22;67961;43.460;3.762;2023-02-19T08:17:51;9.00;81.00
78647;DHT22;67961;43.460;3.762;2023-02-19T08:20:16;9.40;80.30
78647;DHT22;67961;43.460;3.762;2023-02-19T08:22:42;9.80;78.90
78647;DHT22;67961;43.460;3.762;2023-02-19T08:27:34;10.90;76.10
78647;DHT22;67961;43.460;3.762;2023-02-19T08:51:56;13.10;70.30
78647;DHT22;67961;43.460;3.762;2023-02-19T08:54:21;13.00;70.70
78647;DHT22;67961;43.460;3.762;2023-02-19T08:56:47;13.10;69.70
78647;DHT22;67961;43.460;3.762;2023-02-19T08:59:12;13.10;69.20
78647;DHT22;67961;43.460;3.762;2023-02-19T09:06:30;13.10;71.30
78647;DHT22;67961;43.460;3.762;2023-02-19T09:08:56;24.00;50.00
78647;DHT22;67961;43.460;3.762;2023-02-19T23:02:31;-30.10;62.70
78647;DHT22;67961;43.460;3.762;2023-02-19T23:04:57;-29.80;63.60
78647;DHT22;67961;43.460;3.762;2023-02-19T23:07:22;-23.70;63.00
78647;DHT22;67961;43.460;3.762;2023-02-19T23:09:48;-14.60;64.20
78647;DHT22;67961;43.460;3.762;2023-02-19T23:12:14;-10.90;65.70
78647;DHT22;67961;43.460;3.762;2023-02-19T23:14:40;24.00;50.00
78647;DHT22;67961;43.460;3.762;2023-02-19T23:17:06;7.40;65.70
78647;DHT22;67961;43.460;3.762;2023-02-19T23:19:31;6.60;66.40
78647;DHT22;67961;43.460;3.762;2023-02-19T23:21:57;5.50;66.60
78647;DHT22;67961;43.460;3.762;2023-02-19T23:24:23;7.80;66.80
78647;DHT22;67961;43.460;3.762;2023-02-19T23:26:51;9.20;67.40
78647;DHT22;67961;43.460;3.762;2023-02-19T23:29:22;4.10;66.80
78647;DHT22;67961;43.460;3.762;2023-02-19T23:31:48;9.20;66.60
78647;DHT22;67961;43.460;3.762;2023-02-19T23:34:14;9.30;67.20
78647;DHT22;67961;43.460;3.762;2023-02-19T23:36:45;9.20;67.30
78647;DHT22;67961;43.460;3.762;2023-02-19T23:39:12;9.10;68.20
78647;DHT22;67961;43.460;3.762;2023-02-19T23:42:08;9.00;67.80
78647;DHT22;67961;43.460;3.762;2023-02-19T23:44:36;8.90;68.30
78647;DHT22;67961;43.460;3.762;2023-02-19T23:47:02;8.40;67.90
78647;DHT22;67961;43.460;3.762;2023-02-19T23:49:28;7.40;67.60
78647;DHT22;67961;43.460;3.762;2023-02-19T23:51:53;6.10;67.70
78647;DHT22;67961;43.460;3.762;2023-02-19T23:54:19;-4.60;67.50
78647;DHT22;67961;43.460;3.762;2023-02-19T23:56:45;-9.30;67.60
78647;DHT22;67961;43.460;3.762;2023-02-19T23:59:11;-8.60;67.60
